sensor_id;sensor_type;location;lat;lon;timestamp;P1;P2;P0
60058;PMS7003;45932;50.658;3.022;2022-09-24T00:01:15;18.33;18.00;12.00
60058;PMS7003;45932;50.658;3.022;2022-09-24T00:03:43;21.33;21.33;14.33
60058;PMS7003;45932;50.658;3.022;2022-09-24T00:06:14;21.33;20.67;13.33
60058;PMS7003;45932;50.658;3.022;2022-09-24T00:08:39;25.67;23.67;15.33
60058;PMS7003;45932;50.658;3.022;2022-09-24T00:11:06;21.67;20.67;15.00
60058;PMS7003;45932;50.658;3.022;2022-09-24T00:13:36;18.33;16.33;12.00
60058;PMS7003;45932;50.658;3.022;2022-09-24T00:16:03;24.00;20.33;14.00
60058;PMS7003;45932;50.658;3.022;2022-09-24T00:18:31;21.67;20.00;13.67
60058;PMS7003;45932;50.658;3.022;2022-09-24T00:20:57;22.33;20.67;13.67
60058;PMS7003;45932;50.658;3.022;2022-09-24T00:23:22;22.67;21.67;12.00
60058;PMS7003;45932;50.658;3.022;2022-09-24T00:25:47;23.33;19.00;13.67
60058;PMS7003;45932;50.658;3.022;2022-09-24T00:28:31;22.67;21.00;14.00
60058;PMS7003;45932;50.658;3.022;2022-09-24T00:30:57;20.67;18.67;12.67
60058;PMS7003;45932;50.658;3.022;2022-09-24T00:33:27;20.67;19.00;13.67
60058;PMS7003;45932;50.658;3.022;2022-09-24T00:36:00;22.33;18.67;13.33
60058;PMS7003;45932;50.658;3.022;2022-09-24T00:38:28;22.00;22.00;14.67
60058;PMS7003;45932;50.658;3.022;2022-09-24T00:40:54;25.67;21.67;12.00
60058;PMS7003;45932;50.658;3.022;2022-09-24T00:43:26;21.00;21.00;14.33
60058;PMS7003;45932;50.658;3.022;2022-09-24T00:49:09;20.33;19.67;13.67
60058;PMS7003;45932;50.658;3.022;2022-09-24T00:51:37;19.33;18.00;12.67
60058;PMS7003;45932;50.658;3.022;2022-09-24T00:54:06;17.67;17.00;12.67
60058;PMS7003;45932;50.658;3.022;2022-09-24T00:56:36;17.33;17.33;12.00
60058;PMS7003;45932;50.658;3.022;2022-09-24T00:59:05;22.33;19.67;11.00
60058;PMS7003;45932;50.658;3.022;2022-09-24T01:01:33;20.00;18.67;11.67
60058;PMS7003;45932;50.658;3.022;2022-09-24T01:03:58;16.33;16.00;9.33
60058;PMS7003;45932;50.658;3.022;2022-09-24T01:06:26;20.67;19.00;13.00
60058;PMS7003;45932;50.658;3.022;2022-09-24T01:08:52;26.33;19.00;12.67
60058;PMS7003;45932;50.658;3.022;2022-09-24T01:30:44;17.33;16.00;11.33
60058;PMS7003;45932;50.658;3.022;2022-09-24T01:33:18;27.00;25.33;17.00
60058;PMS7003;45932;50.658;3.022;2022-09-24T01:35:47;26.33;21.33;15.00
60058;PMS7003;45932;50.658;3.022;2022-09-24T01:38:20;29.67;24.00;15.67
60058;PMS7003;45932;50.658;3.022;2022-09-24T01:40:52;22.00;21.33;15.33
60058;PMS7003;45932;50.658;3.022;2022-09-24T01:43:21;22.33;22.33;14.00
60058;PMS7003;45932;50.658;3.022;2022-09-24T01:45:49;21.67;18.67;14.00
60058;PMS7003;45932;50.658;3.022;2022-09-24T01:48:16;25.67;23.33;14.67
60058;PMS7003;45932;50.658;3.022;2022-09-24T01:51:32;19.00;19.00;12.67
60058;PMS7003;45932;50.658;3.022;2022-09-24T01:54:05;22.00;21.00;16.00
60058;PMS7003;45932;50.658;3.022;2022-09-24T01:56:48;20.67;18.00;12.00
60058;PMS7003;45932;50.658;3.022;2022-09-24T01:59:29;27.00;24.00;16.00
60058;PMS7003;45932;50.658;3.022;2022-09-24T02:02:10;21.00;20.00;14.33
60058;PMS7003;45932;50.658;3.022;2022-09-24T02:04:43;22.00;21.33;15.00
60058;PMS7003;45932;50.658;3.022;2022-09-24T02:07:21;23.67;19.67;13.33
60058;PMS7003;45932;50.658;3.022;2022-09-24T02:09:53;20.33;19.33;12.67
60058;PMS7003;45932;50.658;3.022;2022-09-24T02:12:20;26.00;21.33;13.67
60058;PMS7003;45932;50.658;3.022;2022-09-24T02:14:54;24.33;21.67;15.67
60058;PMS7003;45932;50.658;3.022;2022-09-24T02:17:24;24.33;20.00;14.00
60058;PMS7003;45932;50.658;3.022;2022-09-24T02:19:55;24.67;23.67;14.67
60058;PMS7003;45932;50.658;3.022;2022-09-24T02:22:24;25.67;22.67;14.67
60058;PMS7003;45932;50.658;3.022;2022-09-24T02:24:51;23.00;21.00;14.00
60058;PMS7003;45932;50.658;3.022;2022-09-24T02:27:20;22.00;19.67;15.00
60058;PMS7003;45932;50.658;3.022;2022-09-24T02:29:52;23.33;20.67;13.33
60058;PMS7003;45932;50.658;3.022;2022-09-24T02:32:19;24.00;19.67;12.00
60058;PMS7003;45932;50.658;3.022;2022-09-24T02:34:48;22.67;21.33;14.67
60058;PMS7003;45932;50.658;3.022;2022-09-24T02:37:17;29.33;23.33;16.33
60058;PMS7003;45932;50.658;3.022;2022-09-24T02:39:46;26.00;23.33;15.67
60058;PMS7003;45932;50.658;3.022;2022-09-24T02:42:12;25.00;23.67;14.33
60058;PMS7003;45932;50.658;3.022;2022-09-24T02:44:39;25.00;22.00;15.33
60058;PMS7003;45932;50.658;3.022;2022-09-24T02:47:05;25.67;21.67;13.67
60058;PMS7003;45932;50.658;3.022;2022-09-24T02:49:31;32.33;31.00;17.67
60058;PMS7003;45932;50.658;3.022;2022-09-24T02:51:57;26.00;24.67;19.67
60058;PMS7003;45932;50.658;3.022;2022-09-24T02:54:22;26.33;22.67;14.00
60058;PMS7003;45932;50.658;3.022;2022-09-24T02:56:49;26.33;25.00;17.33
60058;PMS7003;45932;50.658;3.022;2022-09-24T02:59:15;30.00;29.33;18.00
60058;PMS7003;45932;50.658;3.022;2022-09-24T03:01:40;28.67;27.00;17.33
60058;PMS7003;45932;50.658;3.022;2022-09-24T03:04:06;23.00;21.67;14.00
60058;PMS7003;45932;50.658;3.022;2022-09-24T03:06:31;35.00;27.33;19.00
60058;PMS7003;45932;50.658;3.022;2022-09-24T03:08:56;32.00;26.67;17.00
60058;PMS7003;45932;50.658;3.022;2022-09-24T03:11:22;29.67;27.00;16.33
60058;PMS7003;45932;50.658;3.022;2022-09-24T03:13:48;28.33;26.33;16.33
60058;PMS7003;45932;50.658;3.022;2022-09-24T03:16:14;26.33;23.33;16.33
60058;PMS7003;45932;50.658;3.022;2022-09-24T03:18:40;29.67;26.67;18.33
60058;PMS7003;45932;50.658;3.022;2022-09-24T03:21:06;31.67;28.67;18.67
60058;PMS7003;45932;50.658;3.022;2022-09-24T03:23:33;25.67;23.67;15.33
60058;PMS7003;45932;50.658;3.022;2022-09-24T03:25:59;28.33;27.67;18.00
60058;PMS7003;45932;50.658;3.022;2022-09-24T03:28:25;32.67;22.67;16.00
60058;PMS7003;45932;50.658;3.022;2022-09-24T03:30:51;26.00;23.67;14.00
60058;PMS7003;45932;50.658;3.022;2022-09-24T03:35:57;24.00;21.33;14.33
60058;PMS7003;45932;50.658;3.022;2022-09-24T03:38:26;19.67;18.67;13.33
60058;PMS7003;45932;50.658;3.022;2022-09-24T03:40:53;18.67;17.67;12.67
60058;PMS7003;45932;50.658;3.022;2022-09-24T03:43:18;24.67;19.67;12.67
60058;PMS7003;45932;50.658;3.022;2022-09-24T03:45:44;24.67;18.67;13.00
60058;PMS7003;45932;50.658;3.022;2022-09-24T03:48:11;20.33;20.33;12.00
60058;PMS7003;45932;50.658;3.022;2022-09-24T03:50:37;28.00;25.33;15.00
60058;PMS7003;45932;50.658;3.022;2022-09-24T03:53:03;22.33;19.33;13.67
60058;PMS7003;45932;50.658;3.022;2022-09-24T03:55:28;24.33;19.00;10.67
60058;PMS7003;45932;50.658;3.022;2022-09-24T03:57:54;16.00;12.33;8.00
60058;PMS7003;45932;50.658;3.022;2022-09-24T04:00:19;18.33;15.67;11.67
60058;PMS7003;45932;50.658;3.022;2022-09-24T04:02:44;22.33;20.00;14.67
60058;PMS7003;45932;50.658;3.022;2022-09-24T04:05:10;18.33;17.67;13.67
60058;PMS7003;45932;50.658;3.022;2022-09-24T04:07:35;21.67;21.67;13.00
60058;PMS7003;45932;50.658;3.022;2022-09-24T04:10:01;19.00;18.33;11.67
60058;PMS7003;45932;50.658;3.022;2022-09-24T04:12:27;17.00;15.67;11.00
60058;PMS7003;45932;50.658;3.022;2022-09-24T04:14:53;16.33;14.00;11.00
60058;PMS7003;45932;50.658;3.022;2022-09-24T04:17:19;20.67;17.67;10.67
60058;PMS7003;45932;50.658;3.022;2022-09-24T04:19:44;18.33;16.67;12.00
60058;PMS7003;45932;50.658;3.022;2022-09-24T04:22:10;19.67;16.67;11.67
60058;PMS7003;45932;50.658;3.022;2022-09-24T04:24:35;19.00;17.67;12.00
60058;PMS7003;45932;50.658;3.022;2022-09-24T04:27:01;15.00;13.00;10.67
60058;PMS7003;45932;50.658;3.022;2022-09-24T04:29:33;17.00;15.67;11.00
60058;PMS7003;45932;50.658;3.022;2022-09-24T04:31:58;18.33;17.00;11.67
60058;PMS7003;45932;50.658;3.022;2022-09-24T04:34:23;18.33;16.33;9.67
60058;PMS7003;45932;50.658;3.022;2022-09-24T04:36:49;26.33;22.67;15.00
60058;PMS7003;45932;50.658;3.022;2022-09-24T04:39:14;19.33;17.00;13.00
60058;PMS7003;45932;50.658;3.022;2022-09-24T04:41:39;22.00;20.67;13.33
60058;PMS7003;45932;50.658;3.022;2022-09-24T04:44:05;18.67;18.67;12.33
60058;PMS7003;45932;50.658;3.022;2022-09-24T04:46:30;19.33;16.00;12.67
60058;PMS7003;45932;50.658;3.022;2022-09-24T04:48:58;18.67;16.00;10.00
60058;PMS7003;45932;50.658;3.022;2022-09-24T04:51:24;23.00;17.00;12.00
60058;PMS7003;45932;50.658;3.022;2022-09-24T04:53:49;17.00;17.00;11.67
60058;PMS7003;45932;50.658;3.022;2022-09-24T04:56:14;18.67;14.67;10.00
60058;PMS7003;45932;50.658;3.022;2022-09-24T04:58:40;17.00;14.00;8.67
60058;PMS7003;45932;50.658;3.022;2022-09-24T05:01:05;14.67;14.67;10.33
60058;PMS7003;45932;50.658;3.022;2022-09-24T05:03:31;16.00;13.00;10.00
60058;PMS7003;45932;50.658;3.022;2022-09-24T05:05:57;13.67;13.67;9.00
60058;PMS7003;45932;50.658;3.022;2022-09-24T05:08:22;14.67;14.67;9.67
60058;PMS7003;45932;50.658;3.022;2022-09-24T05:10:48;14.33;13.00;7.00
60058;PMS7003;45932;50.658;3.022;2022-09-24T05:13:13;16.00;14.67;9.00
60058;PMS7003;45932;50.658;3.022;2022-09-24T05:15:38;21.33;14.67;9.33
60058;PMS7003;45932;50.658;3.022;2022-09-24T05:18:04;17.33;14.00;9.33
60058;PMS7003;45932;50.658;3.022;2022-09-24T05:20:30;15.33;13.00;8.67
60058;PMS7003;45932;50.658;3.022;2022-09-24T05:22:56;14.00;13.33;7.67
60058;PMS7003;45932;50.658;3.022;2022-09-24T05:25:21;15.33;13.67;9.33
60058;PMS7003;45932;50.658;3.022;2022-09-24T05:27:51;19.00;16.00;12.33
60058;PMS7003;45932;50.658;3.022;2022-09-24T05:30:18;24.33;18.67;13.00
60058;PMS7003;45932;50.658;3.022;2022-09-24T05:32:45;24.33;23.00;14.00
60058;PMS7003;45932;50.658;3.022;2022-09-24T05:35:16;22.67;21.00;14.67
60058;PMS7003;45932;50.658;3.022;2022-09-24T05:37:56;18.33;15.67;9.33
60058;PMS7003;45932;50.658;3.022;2022-09-24T05:40:21;22.00;21.00;13.67
60058;PMS7003;45932;50.658;3.022;2022-09-24T05:43:05;22.33;20.33;15.00
60058;PMS7003;45932;50.658;3.022;2022-09-24T05:45:31;21.00;18.67;13.00
60058;PMS7003;45932;50.658;3.022;2022-09-24T05:47:57;22.67;21.67;13.00
60058;PMS7003;45932;50.658;3.022;2022-09-24T05:50:23;21.00;15.67;12.00
60058;PMS7003;45932;50.658;3.022;2022-09-24T05:52:49;22.67;21.33;14.00
60058;PMS7003;45932;50.658;3.022;2022-09-24T05:55:14;21.00;19.00;13.67
60058;PMS7003;45932;50.658;3.022;2022-09-24T05:57:40;20.00;19.33;13.33
60058;PMS7003;45932;50.658;3.022;2022-09-24T06:00:05;22.33;20.33;15.33
60058;PMS7003;45932;50.658;3.022;2022-09-24T06:02:31;23.67;22.00;15.33
60058;PMS7003;45932;50.658;3.022;2022-09-24T06:04:57;21.00;20.33;13.00
60058;PMS7003;45932;50.658;3.022;2022-09-24T06:07:22;19.67;19.33;13.00
60058;PMS7003;45932;50.658;3.022;2022-09-24T06:09:48;21.67;21.00;13.67
60058;PMS7003;45932;50.658;3.022;2022-09-24T06:12:14;22.00;19.33;11.67
60058;PMS7003;45932;50.658;3.022;2022-09-24T06:14:41;13.00;12.00;7.67
60058;PMS7003;45932;50.658;3.022;2022-09-24T06:17:07;15.00;15.00;10.67
60058;PMS7003;45932;50.658;3.022;2022-09-24T06:19:35;20.33;18.00;11.00
60058;PMS7003;45932;50.658;3.022;2022-09-24T06:22:01;16.67;14.33;10.33
60058;PMS7003;45932;50.658;3.022;2022-09-24T06:24:26;19.33;17.33;12.33
60058;PMS7003;45932;50.658;3.022;2022-09-24T06:26:52;18.67;16.67;12.00
60058;PMS7003;45932;50.658;3.022;2022-09-24T06:29:25;15.67;11.67;7.67
60058;PMS7003;45932;50.658;3.022;2022-09-24T06:31:51;21.00;21.00;13.67
60058;PMS7003;45932;50.658;3.022;2022-09-24T06:34:17;19.00;17.33;11.33
60058;PMS7003;45932;50.658;3.022;2022-09-24T06:36:43;17.67;17.67;12.33
60058;PMS7003;45932;50.658;3.022;2022-09-24T06:39:08;21.33;14.67;11.33
60058;PMS7003;45932;50.658;3.022;2022-09-24T06:41:33;21.00;15.67;10.67
60058;PMS7003;45932;50.658;3.022;2022-09-24T06:43:59;15.00;14.00;11.33
60058;PMS7003;45932;50.658;3.022;2022-09-24T06:46:24;20.00;16.67;11.67
60058;PMS7003;45932;50.658;3.022;2022-09-24T06:48:53;11.00;11.00;6.33
60058;PMS7003;45932;50.658;3.022;2022-09-24T06:51:19;16.33;14.33;9.67
60058;PMS7003;45932;50.658;3.022;2022-09-24T06:53:44;16.33;15.67;10.33
60058;PMS7003;45932;50.658;3.022;2022-09-24T06:56:10;18.67;17.00;11.67
60058;PMS7003;45932;50.658;3.022;2022-09-24T06:58:35;19.67;14.67;10.00
60058;PMS7003;45932;50.658;3.022;2022-09-24T07:01:01;16.00;15.00;9.67
60058;PMS7003;45932;50.658;3.022;2022-09-24T07:03:28;18.67;17.00;10.00
60058;PMS7003;45932;50.658;3.022;2022-09-24T07:05:58;18.00;15.00;11.33
60058;PMS7003;45932;50.658;3.022;2022-09-24T07:08:25;14.00;11.33;8.00
60058;PMS7003;45932;50.658;3.022;2022-09-24T07:10:50;17.00;15.00;11.33
60058;PMS7003;45932;50.658;3.022;2022-09-24T07:13:19;14.67;14.67;11.33
60058;PMS7003;45932;50.658;3.022;2022-09-24T07:15:48;13.67;11.67;8.67
60058;PMS7003;45932;50.658;3.022;2022-09-24T07:18:14;13.67;13.00;8.67
60058;PMS7003;45932;50.658;3.022;2022-09-24T07:20:40;15.33;12.67;9.00
60058;PMS7003;45932;50.658;3.022;2022-09-24T07:23:06;10.67;9.67;7.33
60058;PMS7003;45932;50.658;3.022;2022-09-24T07:25:33;10.67;10.00;6.67
60058;PMS7003;45932;50.658;3.022;2022-09-24T07:28:04;11.33;10.00;7.33
60058;PMS7003;45932;50.658;3.022;2022-09-24T07:30:31;16.33;12.00;8.00
60058;PMS7003;45932;50.658;3.022;2022-09-24T07:32:57;11.67;9.67;6.33
60058;PMS7003;45932;50.658;3.022;2022-09-24T07:35:23;11.67;10.33;7.67
60058;PMS7003;45932;50.658;3.022;2022-09-24T07:37:59;9.00;8.00;6.33
60058;PMS7003;45932;50.658;3.022;2022-09-24T07:40:28;9.67;9.67;6.67
60058;PMS7003;45932;50.658;3.022;2022-09-24T07:42:54;10.67;9.00;6.67
60058;PMS7003;45932;50.658;3.022;2022-09-24T07:45:21;10.67;9.67;7.33
60058;PMS7003;45932;50.658;3.022;2022-09-24T07:47:47;10.33;10.33;6.67
60058;PMS7003;45932;50.658;3.022;2022-09-24T07:50:20;13.67;11.00;8.33
60058;PMS7003;45932;50.658;3.022;2022-09-24T07:52:48;7.67;7.00;2.00
60058;PMS7003;45932;50.658;3.022;2022-09-24T07:55:14;14.33;11.33;7.33
60058;PMS7003;45932;50.658;3.022;2022-09-24T07:57:44;9.00;9.00;6.67
60058;PMS7003;45932;50.658;3.022;2022-09-24T08:00:13;10.67;8.00;5.67
60058;PMS7003;45932;50.658;3.022;2022-09-24T08:02:39;10.00;8.33;7.00
60058;PMS7003;45932;50.658;3.022;2022-09-24T08:05:04;12.67;9.33;7.67
60058;PMS7003;45932;50.658;3.022;2022-09-24T08:07:30;12.00;9.50;7.00
60058;PMS7003;45932;50.658;3.022;2022-09-24T08:09:55;10.33;10.33;8.00
60058;PMS7003;45932;50.658;3.022;2022-09-24T08:12:20;13.33;10.00;7.00
60058;PMS7003;45932;50.658;3.022;2022-09-24T08:14:49;11.33;10.00;7.00
60058;PMS7003;45932;50.658;3.022;2022-09-24T08:17:15;12.33;10.33;6.67
60058;PMS7003;45932;50.658;3.022;2022-09-24T08:19:41;11.33;10.33;8.33
60058;PMS7003;45932;50.658;3.022;2022-09-24T08:22:07;11.67;11.67;7.67
60058;PMS7003;45932;50.658;3.022;2022-09-24T08:24:32;11.67;10.33;6.33
60058;PMS7003;45932;50.658;3.022;2022-09-24T08:26:58;10.33;9.33;7.33
60058;PMS7003;45932;50.658;3.022;2022-09-24T08:29:24;7.33;7.33;5.67
60058;PMS7003;45932;50.658;3.022;2022-09-24T08:31:49;13.00;13.00;10.00
60058;PMS7003;45932;50.658;3.022;2022-09-24T08:34:14;9.67;8.33;5.67
60058;PMS7003;45932;50.658;3.022;2022-09-24T08:36:40;11.33;11.33;7.67
60058;PMS7003;45932;50.658;3.022;2022-09-24T08:39:05;11.33;11.00;8.00
60058;PMS7003;45932;50.658;3.022;2022-09-24T08:41:43;16.00;11.33;8.00
60058;PMS7003;45932;50.658;3.022;2022-09-24T08:47:42;14.67;13.67;9.00
60058;PMS7003;45932;50.658;3.022;2022-09-24T08:50:24;14.33;14.33;11.33
60058;PMS7003;45932;50.658;3.022;2022-09-24T08:56:03;15.33;11.67;7.67
60058;PMS7003;45932;50.658;3.022;2022-09-24T08:58:42;14.33;14.33;9.00
60058;PMS7003;45932;50.658;3.022;2022-09-24T09:07:48;11.00;10.33;7.33
60058;PMS7003;45932;50.658;3.022;2022-09-24T09:11:00;18.67;16.33;10.33
60058;PMS7003;45932;50.658;3.022;2022-09-24T09:13:59;19.67;17.33;10.00
60058;PMS7003;45932;50.658;3.022;2022-09-24T09:19:34;15.33;15.33;11.00
60058;PMS7003;45932;50.658;3.022;2022-09-24T09:22:08;16.67;15.33;11.33
60058;PMS7003;45932;50.658;3.022;2022-09-24T09:27:13;14.33;13.33;9.00
60058;PMS7003;45932;50.658;3.022;2022-09-24T09:29:39;13.67;13.67;9.67
60058;PMS7003;45932;50.658;3.022;2022-09-24T09:32:23;15.00;14.00;10.00
60058;PMS7003;45932;50.658;3.022;2022-09-24T09:37:43;13.00;13.00;10.00
60058;PMS7003;45932;50.658;3.022;2022-09-24T09:42:57;13.00;12.00;8.67
60058;PMS7003;45932;50.658;3.022;2022-09-24T09:45:50;10.67;10.67;6.67
60058;PMS7003;45932;50.658;3.022;2022-09-24T09:48:16;10.67;10.67;8.33
60058;PMS7003;45932;50.658;3.022;2022-09-24T09:50:48;15.67;13.00;10.33
60058;PMS7003;45932;50.658;3.022;2022-09-24T09:56:45;14.67;13.33;10.00
60058;PMS7003;45932;50.658;3.022;2022-09-24T10:02:10;9.00;6.00;4.67
60058;PMS7003;45932;50.658;3.022;2022-09-24T10:05:02;10.00;10.00;6.67
60058;PMS7003;45932;50.658;3.022;2022-09-24T10:07:30;15.33;14.67;10.67
60058;PMS7003;45932;50.658;3.022;2022-09-24T10:09:57;14.00;13.33;9.67
60058;PMS7003;45932;50.658;3.022;2022-09-24T10:12:40;16.00;16.00;12.00
60058;PMS7003;45932;50.658;3.022;2022-09-24T10:15:16;17.00;13.67;9.67
60058;PMS7003;45932;50.658;3.022;2022-09-24T10:17:43;15.67;14.00;10.00
60058;PMS7003;45932;50.658;3.022;2022-09-24T10:20:23;17.67;14.67;9.67
60058;PMS7003;45932;50.658;3.022;2022-09-24T10:22:53;17.67;13.67;8.33
60058;PMS7003;45932;50.658;3.022;2022-09-24T10:25:25;14.33;13.67;9.00
60058;PMS7003;45932;50.658;3.022;2022-09-24T10:27:54;17.33;16.67;11.00
60058;PMS7003;45932;50.658;3.022;2022-09-24T10:30:58;14.67;12.67;9.33
60058;PMS7003;45932;50.658;3.022;2022-09-24T10:33:37;7.00;6.67;5.00
60058;PMS7003;45932;50.658;3.022;2022-09-24T10:36:04;12.33;12.33;8.67
60058;PMS7003;45932;50.658;3.022;2022-09-24T10:38:43;12.67;12.67;8.00
60058;PMS7003;45932;50.658;3.022;2022-09-24T10:41:13;12.00;12.00;8.00
60058;PMS7003;45932;50.658;3.022;2022-09-24T10:43:39;13.67;12.67;7.33
60058;PMS7003;45932;50.658;3.022;2022-09-24T10:46:17;14.00;12.67;9.00
60058;PMS7003;45932;50.658;3.022;2022-09-24T10:49:05;9.00;9.00;5.00
60058;PMS7003;45932;50.658;3.022;2022-09-24T10:51:55;12.33;11.67;8.33
60058;PMS7003;45932;50.658;3.022;2022-09-24T10:57:50;16.33;15.00;9.67
60058;PMS7003;45932;50.658;3.022;2022-09-24T11:00:29;20.00;17.33;12.00
60058;PMS7003;45932;50.658;3.022;2022-09-24T11:03:12;18.00;14.33;9.00
60058;PMS7003;45932;50.658;3.022;2022-09-24T11:08:41;16.67;16.00;12.67
60058;PMS7003;45932;50.658;3.022;2022-09-24T11:17:36;16.33;16.00;12.00
60058;PMS7003;45932;50.658;3.022;2022-09-24T11:26:05;13.00;13.00;9.00
60058;PMS7003;45932;50.658;3.022;2022-09-24T11:28:49;10.00;9.33;8.00
60058;PMS7003;45932;50.658;3.022;2022-09-24T11:31:48;10.00;10.00;7.67
60058;PMS7003;45932;50.658;3.022;2022-09-24T11:37:42;8.33;8.33;7.33
60058;PMS7003;45932;50.658;3.022;2022-09-24T11:40:26;15.67;9.33;7.33
60058;PMS7003;45932;50.658;3.022;2022-09-24T11:43:06;13.00;11.33;7.67
60058;PMS7003;45932;50.658;3.022;2022-09-24T11:51:16;5.33;5.33;5.00
60058;PMS7003;45932;50.658;3.022;2022-09-24T11:56:37;5.33;5.33;4.33
60058;PMS7003;45932;50.658;3.022;2022-09-24T12:02:04;4.67;4.67;3.00
60058;PMS7003;45932;50.658;3.022;2022-09-24T12:07:32;3.33;3.00;2.00
60058;PMS7003;45932;50.658;3.022;2022-09-24T12:12:41;3.00;3.00;2.33
60058;PMS7003;45932;50.658;3.022;2022-09-24T12:15:14;3.33;3.00;2.00
60058;PMS7003;45932;50.658;3.022;2022-09-24T12:17:46;2.33;2.33;2.00
60058;PMS7003;45932;50.658;3.022;2022-09-24T12:22:51;1.00;1.00;0.67
60058;PMS7003;45932;50.658;3.022;2022-09-24T12:25:24;1.67;1.67;1.00
60058;PMS7003;45932;50.658;3.022;2022-09-24T12:27:53;2.00;2.00;2.00
60058;PMS7003;45932;50.658;3.022;2022-09-24T12:30:33;1.00;0.67;0.67
60058;PMS7003;45932;50.658;3.022;2022-09-24T12:39:14;2.00;1.00;1.00
60058;PMS7003;45932;50.658;3.022;2022-09-24T12:41:44;1.00;1.00;1.00
60058;PMS7003;45932;50.658;3.022;2022-09-24T12:44:14;2.00;2.00;1.33
60058;PMS7003;45932;50.658;3.022;2022-09-24T12:46:50;2.00;2.00;1.00
60058;PMS7003;45932;50.658;3.022;2022-09-24T12:51:56;1.00;1.00;1.00
60058;PMS7003;45932;50.658;3.022;2022-09-24T12:54:31;1.00;1.00;1.00
60058;PMS7003;45932;50.658;3.022;2022-09-24T12:57:06;2.00;1.67;0.67
60058;PMS7003;45932;50.658;3.022;2022-09-24T12:59:32;1.00;1.00;1.00
60058;PMS7003;45932;50.658;3.022;2022-09-24T13:05:14;3.00;3.00;1.33
60058;PMS7003;45932;50.658;3.022;2022-09-24T13:08:00;2.00;2.00;1.33
60058;PMS7003;45932;50.658;3.022;2022-09-24T13:10:27;2.33;2.00;2.00
60058;PMS7003;45932;50.658;3.022;2022-09-24T13:12:57;3.00;3.00;2.00
60058;PMS7003;45932;50.658;3.022;2022-09-24T13:18:02;3.00;1.00;1.00
60058;PMS7003;45932;50.658;3.022;2022-09-24T13:20:29;1.00;1.00;0.00
60058;PMS7003;45932;50.658;3.022;2022-09-24T13:22:56;1.00;1.00;1.00
60058;PMS7003;45932;50.658;3.022;2022-09-24T13:25:24;3.00;3.00;2.00
60058;PMS7003;45932;50.658;3.022;2022-09-24T13:27:56;1.00;1.00;0.67
60058;PMS7003;45932;50.658;3.022;2022-09-24T13:30:35;1.00;1.00;1.00
60058;PMS7003;45932;50.658;3.022;2022-09-24T13:35:34;2.00;2.00;1.00
60058;PMS7003;45932;50.658;3.022;2022-09-24T13:38:17;1.33;1.33;1.00
60058;PMS7003;45932;50.658;3.022;2022-09-24T13:40:53;1.00;1.00;1.00
60058;PMS7003;45932;50.658;3.022;2022-09-24T13:43:37;2.00;2.00;1.33
60058;PMS7003;45932;50.658;3.022;2022-09-24T13:46:10;3.00;3.00;1.00
60058;PMS7003;45932;50.658;3.022;2022-09-24T13:48:51;1.33;1.33;1.00
60058;PMS7003;45932;50.658;3.022;2022-09-24T13:51:22;1.00;0.67;0.67
60058;PMS7003;45932;50.658;3.022;2022-09-24T13:56:37;2.00;1.00;0.00
60058;PMS7003;45932;50.658;3.022;2022-09-24T13:59:09;2.67;1.00;1.00
60058;PMS7003;45932;50.658;3.022;2022-09-24T14:01:40;1.00;1.00;1.00
60058;PMS7003;45932;50.658;3.022;2022-09-24T14:04:17;0.00;0.00;0.00
60058;PMS7003;45932;50.658;3.022;2022-09-24T14:06:46;1.00;1.00;0.67
60058;PMS7003;45932;50.658;3.022;2022-09-24T14:11:50;1.33;1.33;1.00
60058;PMS7003;45932;50.658;3.022;2022-09-24T14:14:18;0.00;0.00;0.00
60058;PMS7003;45932;50.658;3.022;2022-09-24T14:16:45;0.00;0.00;0.00
60058;PMS7003;45932;50.658;3.022;2022-09-24T14:19:11;1.00;1.00;1.00
60058;PMS7003;45932;50.658;3.022;2022-09-24T14:21:57;2.67;1.67;1.00
60058;PMS7003;45932;50.658;3.022;2022-09-24T14:24:33;3.33;1.67;1.33
60058;PMS7003;45932;50.658;3.022;2022-09-24T14:27:12;2.33;1.00;1.00
60058;PMS7003;45932;50.658;3.022;2022-09-24T14:29:43;1.00;1.00;0.00
60058;PMS7003;45932;50.658;3.022;2022-09-24T14:32:18;2.00;0.33;0.00
60058;PMS7003;45932;50.658;3.022;2022-09-24T14:34:47;1.00;1.00;1.00
60058;PMS7003;45932;50.658;3.022;2022-09-24T14:39:57;2.33;1.00;0.00
60058;PMS7003;45932;50.658;3.022;2022-09-24T14:42:30;1.00;0.33;0.00
60058;PMS7003;45932;50.658;3.022;2022-09-24T14:45:09;0.33;0.33;0.00
60058;PMS7003;45932;50.658;3.022;2022-09-24T14:47:43;0.00;0.00;0.00
60058;PMS7003;45932;50.658;3.022;2022-09-24T14:53:17;0.00;0.00;0.00
60058;PMS7003;45932;50.658;3.022;2022-09-24T14:55:56;1.00;1.00;1.00
60058;PMS7003;45932;50.658;3.022;2022-09-24T15:00:48;2.00;1.00;0.00
60058;PMS7003;45932;50.658;3.022;2022-09-24T15:03:19;0.00;0.00;0.00
60058;PMS7003;45932;50.658;3.022;2022-09-24T15:06:00;1.67;1.67;1.00
60058;PMS7003;45932;50.658;3.022;2022-09-24T15:08:28;1.00;1.00;0.00
60058;PMS7003;45932;50.658;3.022;2022-09-24T15:10:54;1.00;1.00;0.00
60058;PMS7003;45932;50.658;3.022;2022-09-24T15:13:31;1.00;0.00;0.00
60058;PMS7003;45932;50.658;3.022;2022-09-24T15:16:02;1.00;1.00;1.00
60058;PMS7003;45932;50.658;3.022;2022-09-24T15:18:30;3.33;1.67;0.67
60058;PMS7003;45932;50.658;3.022;2022-09-24T15:20:56;0.00;0.00;0.00
60058;PMS7003;45932;50.658;3.022;2022-09-24T15:23:23;0.67;0.67;0.00
60058;PMS7003;45932;50.658;3.022;2022-09-24T15:25:49;2.00;1.00;0.00
60058;PMS7003;45932;50.658;3.022;2022-09-24T15:28:14;1.67;1.67;1.00
60058;PMS7003;45932;50.658;3.022;2022-09-24T15:30:40;1.00;1.00;0.00
60058;PMS7003;45932;50.658;3.022;2022-09-24T15:33:10;2.67;1.00;1.00
60058;PMS7003;45932;50.658;3.022;2022-09-24T15:35:36;3.00;2.00;1.00
60058;PMS7003;45932;50.658;3.022;2022-09-24T15:38:03;1.00;1.00;1.00
60058;PMS7003;45932;50.658;3.022;2022-09-24T15:40:28;1.00;1.00;0.33
60058;PMS7003;45932;50.658;3.022;2022-09-24T15:42:57;2.33;2.00;1.33
60058;PMS7003;45932;50.658;3.022;2022-09-24T15:45:23;3.00;1.67;1.00
60058;PMS7003;45932;50.658;3.022;2022-09-24T15:47:50;2.33;2.00;2.00
60058;PMS7003;45932;50.658;3.022;2022-09-24T15:50:16;1.00;1.00;1.00
60058;PMS7003;45932;50.658;3.022;2022-09-24T15:52:49;2.00;2.00;1.33
60058;PMS7003;45932;50.658;3.022;2022-09-24T15:55:18;1.00;1.00;1.00
60058;PMS7003;45932;50.658;3.022;2022-09-24T15:57:46;1.00;1.00;1.00
60058;PMS7003;45932;50.658;3.022;2022-09-24T16:00:14;2.00;2.00;1.00
60058;PMS7003;45932;50.658;3.022;2022-09-24T16:02:41;1.00;1.00;0.00
60058;PMS7003;45932;50.658;3.022;2022-09-24T16:05:11;1.67;1.00;1.00
60058;PMS7003;45932;50.658;3.022;2022-09-24T16:07:38;2.33;2.00;1.00
60058;PMS7003;45932;50.658;3.022;2022-09-24T16:10:04;2.33;2.33;1.33
60058;PMS7003;45932;50.658;3.022;2022-09-24T16:12:30;2.00;2.00;1.00
60058;PMS7003;45932;50.658;3.022;2022-09-24T16:14:55;2.67;1.67;1.33
60058;PMS7003;45932;50.658;3.022;2022-09-24T16:17:23;2.33;2.00;1.33
60058;PMS7003;45932;50.658;3.022;2022-09-24T16:19:49;1.33;1.33;1.00
60058;PMS7003;45932;50.658;3.022;2022-09-24T16:24:46;1.00;1.00;1.00